sensor_id;sensor_type;location;lat;lon;timestamp;P1;durP1;ratioP1;P2;durP2;ratioP2
59161;SDS011;44942;48.936;8.260;2024-01-06T00:01:47;5.00;;;3.17;;
59161;SDS011;44942;48.936;8.260;2024-01-06T00:06:48;3.80;;;3.10;;
59161;SDS011;44942;48.936;8.260;2024-01-06T00:11:48;5.00;;;3.20;;
59161;SDS011;44942;48.936;8.260;2024-01-06T00:16:49;3.45;;;2.58;;
59161;SDS011;44942;48.936;8.260;2024-01-06T00:21:50;5.50;;;3.30;;
59161;SDS011;44942;48.936;8.260;2024-01-06T00:26:50;7.10;;;2.90;;
59161;SDS011;44942;48.936;8.260;2024-01-06T00:31:51;4.63;;;2.87;;
59161;SDS011;44942;48.936;8.260;2024-01-06T00:36:51;5.43;;;3.00;;
59161;SDS011;44942;48.936;8.260;2024-01-06T00:41:52;6.30;;;3.30;;
59161;SDS011;44942;48.936;8.260;2024-01-06T00:46:54;6.03;;;2.95;;
59161;SDS011;44942;48.936;8.260;2024-01-06T00:51:56;6.30;;;2.85;;
59161;SDS011;44942;48.936;8.260;2024-01-06T00:56:56;4.43;;;2.87;;
59161;SDS011;44942;48.936;8.260;2024-01-06T01:01:57;4.63;;;3.07;;
59161;SDS011;44942;48.936;8.260;2024-01-06T01:06:57;4.40;;;2.67;;
59161;SDS011;44942;48.936;8.260;2024-01-06T01:11:59;5.20;;;2.88;;
59161;SDS011;44942;48.936;8.260;2024-01-06T01:17:00;4.93;;;2.90;;
59161;SDS011;44942;48.936;8.260;2024-01-06T01:22:01;5.07;;;2.60;;
59161;SDS011;44942;48.936;8.260;2024-01-06T01:27:01;6.53;;;3.17;;
59161;SDS011;44942;48.936;8.260;2024-01-06T01:32:02;4.13;;;2.50;;
59161;SDS011;44942;48.936;8.260;2024-01-06T01:37:03;5.00;;;2.65;;
59161;SDS011;44942;48.936;8.260;2024-01-06T01:42:03;5.50;;;2.90;;
59161;SDS011;44942;48.936;8.260;2024-01-06T01:47:04;3.42;;;2.30;;
59161;SDS011;44942;48.936;8.260;2024-01-06T01:52:05;4.22;;;2.58;;
59161;SDS011;44942;48.936;8.260;2024-01-06T01:57:06;5.53;;;2.87;;
59161;SDS011;44942;48.936;8.260;2024-01-06T02:02:07;5.03;;;2.45;;
59161;SDS011;44942;48.936;8.260;2024-01-06T02:07:08;3.85;;;2.35;;
59161;SDS011;44942;48.936;8.260;2024-01-06T02:12:09;4.37;;;2.40;;
59161;SDS011;44942;48.936;8.260;2024-01-06T02:17:09;3.83;;;2.43;;
59161;SDS011;44942;48.936;8.260;2024-01-06T02:22:10;3.33;;;2.27;;
59161;SDS011;44942;48.936;8.260;2024-01-06T02:27:11;4.33;;;2.40;;
59161;SDS011;44942;48.936;8.260;2024-01-06T02:32:11;2.97;;;2.00;;
59161;SDS011;44942;48.936;8.260;2024-01-06T02:37:12;4.83;;;2.40;;
59161;SDS011;44942;48.936;8.260;2024-01-06T02:42:12;3.67;;;2.10;;
59161;SDS011;44942;48.936;8.260;2024-01-06T02:47:13;4.13;;;2.30;;
59161;SDS011;44942;48.936;8.260;2024-01-06T02:52:13;3.13;;;2.17;;
59161;SDS011;44942;48.936;8.260;2024-01-06T02:57:14;4.60;;;2.10;;
59161;SDS011;44942;48.936;8.260;2024-01-06T03:02:15;3.28;;;2.00;;
59161;SDS011;44942;48.936;8.260;2024-01-06T03:07:17;2.65;;;1.85;;
59161;SDS011;44942;48.936;8.260;2024-01-06T03:12:17;2.90;;;1.53;;
59161;SDS011;44942;48.936;8.260;2024-01-06T03:17:18;2.80;;;1.90;;
59161;SDS011;44942;48.936;8.260;2024-01-06T03:22:18;3.00;;;2.00;;
59161;SDS011;44942;48.936;8.260;2024-01-06T03:27:19;3.60;;;1.80;;
59161;SDS011;44942;48.936;8.260;2024-01-06T03:32:20;3.20;;;2.10;;
59161;SDS011;44942;48.936;8.260;2024-01-06T03:37:21;3.92;;;2.10;;
59161;SDS011;44942;48.936;8.260;2024-01-06T03:42:22;3.28;;;1.77;;
59161;SDS011;44942;48.936;8.260;2024-01-06T03:47:22;2.53;;;1.57;;
59161;SDS011;44942;48.936;8.260;2024-01-06T03:52:23;2.70;;;1.63;;
59161;SDS011;44942;48.936;8.260;2024-01-06T03:57:24;3.20;;;1.90;;
59161;SDS011;44942;48.936;8.260;2024-01-06T04:02:24;3.57;;;2.00;;
59161;SDS011;44942;48.936;8.260;2024-01-06T04:07:25;4.43;;;1.90;;
59161;SDS011;44942;48.936;8.260;2024-01-06T04:12:25;2.87;;;1.70;;
59161;SDS011;44942;48.936;8.260;2024-01-06T04:17:26;2.80;;;1.83;;
59161;SDS011;44942;48.936;8.260;2024-01-06T04:22:27;3.40;;;1.80;;
59161;SDS011;44942;48.936;8.260;2024-01-06T04:27:27;2.87;;;1.50;;
59161;SDS011;44942;48.936;8.260;2024-01-06T04:32:28;2.42;;;1.75;;
59161;SDS011;44942;48.936;8.260;2024-01-06T04:37:28;2.20;;;1.50;;
59161;SDS011;44942;48.936;8.260;2024-01-06T04:42:29;4.60;;;1.60;;
59161;SDS011;44942;48.936;8.260;2024-01-06T04:47:30;2.77;;;1.70;;
59161;SDS011;44942;48.936;8.260;2024-01-06T04:52:30;2.80;;;1.70;;
59161;SDS011;44942;48.936;8.260;2024-01-06T04:57:31;2.80;;;1.48;;
59161;SDS011;44942;48.936;8.260;2024-01-06T05:02:32;2.60;;;1.57;;
59161;SDS011;44942;48.936;8.260;2024-01-06T05:07:33;2.00;;;1.42;;
59161;SDS011;44942;48.936;8.260;2024-01-06T05:12:33;2.23;;;1.53;;
59161;SDS011;44942;48.936;8.260;2024-01-06T05:17:34;2.83;;;1.60;;
59161;SDS011;44942;48.936;8.260;2024-01-06T05:22:34;2.47;;;1.77;;
59161;SDS011;44942;48.936;8.260;2024-01-06T05:27:35;2.80;;;1.53;;
59161;SDS011;44942;48.936;8.260;2024-01-06T05:32:36;2.87;;;1.40;;
59161;SDS011;44942;48.936;8.260;2024-01-06T05:37:38;2.63;;;1.50;;
59161;SDS011;44942;48.936;8.260;2024-01-06T05:42:39;2.78;;;1.65;;
59161;SDS011;44942;48.936;8.260;2024-01-06T05:47:39;3.10;;;1.60;;
59161;SDS011;44942;48.936;8.260;2024-01-06T05:52:40;2.53;;;1.80;;
59161;SDS011;44942;48.936;8.260;2024-01-06T05:57:41;2.55;;;1.58;;
59161;SDS011;44942;48.936;8.260;2024-01-06T06:02:41;2.00;;;1.40;;
59161;SDS011;44942;48.936;8.260;2024-01-06T06:07:42;3.20;;;1.50;;
59161;SDS011;44942;48.936;8.260;2024-01-06T06:12:43;2.47;;;1.40;;
59161;SDS011;44942;48.936;8.260;2024-01-06T06:17:44;2.10;;;1.40;;
59161;SDS011;44942;48.936;8.260;2024-01-06T06:22:45;3.13;;;1.48;;
59161;SDS011;44942;48.936;8.260;2024-01-06T06:27:45;3.07;;;1.50;;
59161;SDS011;44942;48.936;8.260;2024-01-06T06:32:46;3.83;;;1.33;;
59161;SDS011;44942;48.936;8.260;2024-01-06T06:42:49;1.80;;;1.20;;
59161;SDS011;44942;48.936;8.260;2024-01-06T06:47:49;2.80;;;1.40;;
59161;SDS011;44942;48.936;8.260;2024-01-06T06:52:50;2.17;;;1.48;;
59161;SDS011;44942;48.936;8.260;2024-01-06T06:57:50;2.90;;;1.43;;
59161;SDS011;44942;48.936;8.260;2024-01-06T07:02:52;3.40;;;1.40;;
59161;SDS011;44942;48.936;8.260;2024-01-06T07:07:53;3.60;;;1.30;;
59161;SDS011;44942;48.936;8.260;2024-01-06T07:12:53;2.80;;;1.40;;
59161;SDS011;44942;48.936;8.260;2024-01-06T07:17:54;2.88;;;1.48;;
59161;SDS011;44942;48.936;8.260;2024-01-06T07:22:54;3.07;;;1.47;;
59161;SDS011;44942;48.936;8.260;2024-01-06T07:27:55;3.73;;;1.50;;
59161;SDS011;44942;48.936;8.260;2024-01-06T07:32:56;2.40;;;1.30;;
59161;SDS011;44942;48.936;8.260;2024-01-06T07:37:57;2.72;;;1.30;;
59161;SDS011;44942;48.936;8.260;2024-01-06T07:42:57;1.83;;;1.30;;
59161;SDS011;44942;48.936;8.260;2024-01-06T07:47:58;2.40;;;1.27;;
59161;SDS011;44942;48.936;8.260;2024-01-06T07:52:59;2.60;;;1.30;;
59161;SDS011;44942;48.936;8.260;2024-01-06T07:58:00;3.40;;;1.40;;
59161;SDS011;44942;48.936;8.260;2024-01-06T08:03:00;2.67;;;1.90;;
59161;SDS011;44942;48.936;8.260;2024-01-06T08:08:01;2.50;;;1.90;;
59161;SDS011;44942;48.936;8.260;2024-01-06T08:13:01;2.70;;;1.60;;
59161;SDS011;44942;48.936;8.260;2024-01-06T08:18:02;2.45;;;1.60;;
59161;SDS011;44942;48.936;8.260;2024-01-06T08:23:03;1.85;;;1.40;;
59161;SDS011;44942;48.936;8.260;2024-01-06T08:28:04;2.58;;;1.50;;
59161;SDS011;44942;48.936;8.260;2024-01-06T08:33:05;1.92;;;1.40;;
59161;SDS011;44942;48.936;8.260;2024-01-06T08:38:06;1.80;;;1.40;;
59161;SDS011;44942;48.936;8.260;2024-01-06T08:43:07;1.75;;;1.50;;
59161;SDS011;44942;48.936;8.260;2024-01-06T08:48:08;2.07;;;1.33;;
59161;SDS011;44942;48.936;8.260;2024-01-06T08:53:08;2.90;;;1.57;;
59161;SDS011;44942;48.936;8.260;2024-01-06T08:58:09;1.87;;;1.27;;
59161;SDS011;44942;48.936;8.260;2024-01-06T09:03:09;2.00;;;1.43;;
59161;SDS011;44942;48.936;8.260;2024-01-06T09:08:12;5.70;;;1.60;;
59161;SDS011;44942;48.936;8.260;2024-01-06T09:13:12;8.33;;;6.03;;
59161;SDS011;44942;48.936;8.260;2024-01-06T09:18:13;4.67;;;3.27;;
59161;SDS011;44942;48.936;8.260;2024-01-06T09:23:14;5.70;;;3.90;;
59161;SDS011;44942;48.936;8.260;2024-01-06T09:28:15;7.07;;;3.60;;
59161;SDS011;44942;48.936;8.260;2024-01-06T09:33:16;5.20;;;3.30;;
59161;SDS011;44942;48.936;8.260;2024-01-06T09:43:18;4.17;;;2.73;;
59161;SDS011;44942;48.936;8.260;2024-01-06T09:48:18;5.63;;;2.73;;
59161;SDS011;44942;48.936;8.260;2024-01-06T09:53:20;3.45;;;2.88;;
59161;SDS011;44942;48.936;8.260;2024-01-06T09:58:20;5.22;;;3.05;;
59161;SDS011;44942;48.936;8.260;2024-01-06T10:03:21;12.10;;;3.20;;
59161;SDS011;44942;48.936;8.260;2024-01-06T10:08:25;16.87;;;3.17;;
59161;SDS011;44942;48.936;8.260;2024-01-06T10:13:26;18.75;;;3.65;;
59161;SDS011;44942;48.936;8.260;2024-01-06T10:18:28;11.73;;;2.92;;
59161;SDS011;44942;48.936;8.260;2024-01-06T10:23:29;7.95;;;3.00;;
59161;SDS011;44942;48.936;8.260;2024-01-06T10:28:32;9.15;;;2.70;;
59161;SDS011;44942;48.936;8.260;2024-01-06T10:33:32;5.10;;;2.38;;
59161;SDS011;44942;48.936;8.260;2024-01-06T10:38:33;5.47;;;2.95;;
59161;SDS011;44942;48.936;8.260;2024-01-06T10:43:35;5.53;;;2.45;;
59161;SDS011;44942;48.936;8.260;2024-01-06T10:48:38;4.53;;;2.28;;
59161;SDS011;44942;48.936;8.260;2024-01-06T10:53:42;5.85;;;2.55;;
59161;SDS011;44942;48.936;8.260;2024-01-06T10:58:47;5.05;;;2.50;;
59161;SDS011;44942;48.936;8.260;2024-01-06T11:03:49;7.75;;;2.88;;
59161;SDS011;44942;48.936;8.260;2024-01-06T11:08:59;5.45;;;2.20;;
59161;SDS011;44942;48.936;8.260;2024-01-06T11:14:24;5.30;;;2.40;;
59161;SDS011;44942;48.936;8.260;2024-01-06T11:24:38;4.07;;;2.10;;
59161;SDS011;44942;48.936;8.260;2024-01-06T11:29:47;4.40;;;2.00;;
59161;SDS011;44942;48.936;8.260;2024-01-06T11:34:49;3.65;;;2.40;;
59161;SDS011;44942;48.936;8.260;2024-01-06T11:39:58;4.93;;;2.25;;
59161;SDS011;44942;48.936;8.260;2024-01-06T11:45:07;4.77;;;2.60;;
59161;SDS011;44942;48.936;8.260;2024-01-06T11:50:08;4.68;;;2.42;;
59161;SDS011;44942;48.936;8.260;2024-01-06T11:55:09;3.72;;;2.10;;
59161;SDS011;44942;48.936;8.260;2024-01-06T12:00:10;3.17;;;2.17;;
59161;SDS011;44942;48.936;8.260;2024-01-06T12:05:17;4.50;;;2.20;;
59161;SDS011;44942;48.936;8.260;2024-01-06T12:10:19;5.00;;;2.35;;
59161;SDS011;44942;48.936;8.260;2024-01-06T12:15:20;5.53;;;2.30;;
59161;SDS011;44942;48.936;8.260;2024-01-06T12:20:21;4.33;;;2.10;;
59161;SDS011;44942;48.936;8.260;2024-01-06T12:25:24;7.20;;;2.53;;
59161;SDS011;44942;48.936;8.260;2024-01-06T12:30:26;3.55;;;1.90;;
59161;SDS011;44942;48.936;8.260;2024-01-06T12:35:27;4.20;;;1.80;;
59161;SDS011;44942;48.936;8.260;2024-01-06T12:40:28;5.40;;;2.20;;
59161;SDS011;44942;48.936;8.260;2024-01-06T12:45:29;2.10;;;1.90;;
59161;SDS011;44942;48.936;8.260;2024-01-06T12:50:29;3.00;;;2.03;;
59161;SDS011;44942;48.936;8.260;2024-01-06T12:55:30;4.73;;;2.17;;
59161;SDS011;44942;48.936;8.260;2024-01-06T13:00:30;2.70;;;2.00;;
59161;SDS011;44942;48.936;8.260;2024-01-06T13:05:31;3.55;;;2.15;;
59161;SDS011;44942;48.936;8.260;2024-01-06T13:10:32;3.77;;;2.20;;
59161;SDS011;44942;48.936;8.260;2024-01-06T13:15:34;4.57;;;2.30;;
59161;SDS011;44942;48.936;8.260;2024-01-06T13:20:34;3.60;;;2.20;;
59161;SDS011;44942;48.936;8.260;2024-01-06T13:25:37;3.05;;;1.95;;
59161;SDS011;44942;48.936;8.260;2024-01-06T13:30:39;3.55;;;2.20;;
59161;SDS011;44942;48.936;8.260;2024-01-06T13:35:41;2.33;;;2.00;;
59161;SDS011;44942;48.936;8.260;2024-01-06T13:40:42;2.65;;;2.20;;
59161;SDS011;44942;48.936;8.260;2024-01-06T13:45:43;4.45;;;2.65;;
59161;SDS011;44942;48.936;8.260;2024-01-06T13:50:47;3.92;;;2.78;;
59161;SDS011;44942;48.936;8.260;2024-01-06T13:55:48;3.33;;;2.80;;
59161;SDS011;44942;48.936;8.260;2024-01-06T14:00:48;4.10;;;2.95;;
59161;SDS011;44942;48.936;8.260;2024-01-06T14:05:49;3.57;;;2.60;;
59161;SDS011;44942;48.936;8.260;2024-01-06T14:10:51;3.60;;;2.75;;
59161;SDS011;44942;48.936;8.260;2024-01-06T14:15:52;6.63;;;3.10;;
59161;SDS011;44942;48.936;8.260;2024-01-06T14:20:52;11.77;;;3.33;;
59161;SDS011;44942;48.936;8.260;2024-01-06T14:25:58;13.27;;;3.30;;
59161;SDS011;44942;48.936;8.260;2024-01-06T14:30:59;10.98;;;3.30;;
59161;SDS011;44942;48.936;8.260;2024-01-06T14:35:59;8.17;;;3.43;;
59161;SDS011;44942;48.936;8.260;2024-01-06T14:41:00;9.00;;;3.20;;
59161;SDS011;44942;48.936;8.260;2024-01-06T14:46:00;7.23;;;3.37;;
59161;SDS011;44942;48.936;8.260;2024-01-06T14:56:04;7.55;;;3.10;;
59161;SDS011;44942;48.936;8.260;2024-01-06T15:01:05;6.40;;;2.92;;
59161;SDS011;44942;48.936;8.260;2024-01-06T15:06:05;4.60;;;2.88;;
59161;SDS011;44942;48.936;8.260;2024-01-06T15:11:06;5.38;;;2.90;;
59161;SDS011;44942;48.936;8.260;2024-01-06T15:16:08;6.20;;;2.80;;
59161;SDS011;44942;48.936;8.260;2024-01-06T15:21:08;5.63;;;3.33;;
59161;SDS011;44942;48.936;8.260;2024-01-06T15:26:09;5.03;;;2.67;;
59161;SDS011;44942;48.936;8.260;2024-01-06T15:31:10;5.65;;;2.95;;
59161;SDS011;44942;48.936;8.260;2024-01-06T15:36:10;3.93;;;2.33;;
59161;SDS011;44942;48.936;8.260;2024-01-06T15:41:11;5.20;;;2.67;;
59161;SDS011;44942;48.936;8.260;2024-01-06T15:46:12;3.33;;;2.80;;
59161;SDS011;44942;48.936;8.260;2024-01-06T15:51:12;3.97;;;2.40;;
59161;SDS011;44942;48.936;8.260;2024-01-06T15:56:13;2.83;;;2.53;;
59161;SDS011;44942;48.936;8.260;2024-01-06T16:01:13;3.37;;;2.40;;
59161;SDS011;44942;48.936;8.260;2024-01-06T16:06:14;4.57;;;2.70;;
59161;SDS011;44942;48.936;8.260;2024-01-06T16:11:15;3.77;;;2.60;;
59161;SDS011;44942;48.936;8.260;2024-01-06T16:16:15;3.00;;;2.70;;
59161;SDS011;44942;48.936;8.260;2024-01-06T16:21:22;3.70;;;2.70;;
59161;SDS011;44942;48.936;8.260;2024-01-06T16:26:24;4.30;;;2.40;;
59161;SDS011;44942;48.936;8.260;2024-01-06T16:31:24;3.93;;;2.23;;
59161;SDS011;44942;48.936;8.260;2024-01-06T16:36:25;2.83;;;2.17;;
59161;SDS011;44942;48.936;8.260;2024-01-06T16:41:26;4.47;;;2.60;;
59161;SDS011;44942;48.936;8.260;2024-01-06T16:46:27;2.88;;;2.50;;
59161;SDS011;44942;48.936;8.260;2024-01-06T16:51:28;2.80;;;2.40;;
59161;SDS011;44942;48.936;8.260;2024-01-06T16:56:28;3.50;;;2.70;;
59161;SDS011;44942;48.936;8.260;2024-01-06T17:01:30;3.28;;;2.50;;
59161;SDS011;44942;48.936;8.260;2024-01-06T17:06:30;3.00;;;2.60;;
59161;SDS011;44942;48.936;8.260;2024-01-06T17:11:31;3.97;;;2.60;;
59161;SDS011;44942;48.936;8.260;2024-01-06T17:16:31;2.60;;;2.40;;
59161;SDS011;44942;48.936;8.260;2024-01-06T17:21:32;2.83;;;2.47;;
59161;SDS011;44942;48.936;8.260;2024-01-06T17:26:33;3.63;;;2.50;;
59161;SDS011;44942;48.936;8.260;2024-01-06T17:31:34;2.75;;;2.50;;
59161;SDS011;44942;48.936;8.260;2024-01-06T17:36:35;2.45;;;2.25;;
59161;SDS011;44942;48.936;8.260;2024-01-06T17:41:36;2.58;;;2.38;;
59161;SDS011;44942;48.936;8.260;2024-01-06T17:46:37;2.40;;;2.20;;
59161;SDS011;44942;48.936;8.260;2024-01-06T17:51:38;3.05;;;2.20;;
59161;SDS011;44942;48.936;8.260;2024-01-06T17:56:39;2.47;;;2.27;;
59161;SDS011;44942;48.936;8.260;2024-01-06T18:01:40;2.63;;;2.28;;
59161;SDS011;44942;48.936;8.260;2024-01-06T18:06:41;2.67;;;2.28;;
59161;SDS011;44942;48.936;8.260;2024-01-06T18:11:43;2.58;;;2.38;;
59161;SDS011;44942;48.936;8.260;2024-01-06T18:16:45;2.67;;;2.40;;
59161;SDS011;44942;48.936;8.260;2024-01-06T18:21:46;2.50;;;2.20;;
59161;SDS011;44942;48.936;8.260;2024-01-06T18:26:46;2.60;;;2.40;;
59161;SDS011;44942;48.936;8.260;2024-01-06T18:31:47;2.60;;;2.40;;
59161;SDS011;44942;48.936;8.260;2024-01-06T18:36:48;2.85;;;2.30;;
59161;SDS011;44942;48.936;8.260;2024-01-06T18:41:48;2.50;;;2.20;;
59161;SDS011;44942;48.936;8.260;2024-01-06T18:46:49;3.22;;;2.40;;
59161;SDS011;44942;48.936;8.260;2024-01-06T18:51:50;2.57;;;2.30;;
59161;SDS011;44942;48.936;8.260;2024-01-06T18:56:50;2.50;;;2.30;;
59161;SDS011;44942;48.936;8.260;2024-01-06T19:01:51;2.47;;;2.20;;
59161;SDS011;44942;48.936;8.260;2024-01-06T19:06:52;6.68;;;2.67;;
59161;SDS011;44942;48.936;8.260;2024-01-06T19:11:53;4.80;;;2.53;;
59161;SDS011;44942;48.936;8.260;2024-01-06T19:16:54;4.03;;;2.40;;
59161;SDS011;44942;48.936;8.260;2024-01-06T19:21:54;3.13;;;2.40;;
59161;SDS011;44942;48.936;8.260;2024-01-06T19:26:55;2.40;;;2.13;;
59161;SDS011;44942;48.936;8.260;2024-01-06T19:31:56;3.73;;;2.43;;
59161;SDS011;44942;48.936;8.260;2024-01-06T19:36:57;2.85;;;2.40;;
59161;SDS011;44942;48.936;8.260;2024-01-06T19:41:58;2.43;;;2.23;;
59161;SDS011;44942;48.936;8.260;2024-01-06T19:46:58;3.17;;;2.57;;
59161;SDS011;44942;48.936;8.260;2024-01-06T19:52:00;3.75;;;2.40;;
59161;SDS011;44942;48.936;8.260;2024-01-06T19:57:01;2.80;;;2.42;;
59161;SDS011;44942;48.936;8.260;2024-01-06T20:02:03;3.10;;;2.28;;
59161;SDS011;44942;48.936;8.260;2024-01-06T20:07:04;2.90;;;2.20;;
59161;SDS011;44942;48.936;8.260;2024-01-06T20:12:04;3.37;;;2.20;;
59161;SDS011;44942;48.936;8.260;2024-01-06T20:17:05;2.33;;;2.10;;
59161;SDS011;44942;48.936;8.260;2024-01-06T20:22:10;2.15;;;1.95;;
59161;SDS011;44942;48.936;8.260;2024-01-06T20:27:10;2.57;;;2.33;;
59161;SDS011;44942;48.936;8.260;2024-01-06T20:32:11;2.97;;;2.10;;
59161;SDS011;44942;48.936;8.260;2024-01-06T20:37:11;2.53;;;2.17;;
59161;SDS011;44942;48.936;8.260;2024-01-06T20:42:12;2.53;;;2.30;;
59161;SDS011;44942;48.936;8.260;2024-01-06T20:47:13;2.47;;;2.28;;
59161;SDS011;44942;48.936;8.260;2024-01-06T20:52:13;4.50;;;3.00;;
59161;SDS011;44942;48.936;8.260;2024-01-06T20:57:14;3.37;;;2.93;;
59161;SDS011;44942;48.936;8.260;2024-01-06T21:07:20;2.75;;;2.47;;
59161;SDS011;44942;48.936;8.260;2024-01-06T21:12:21;2.97;;;2.67;;
59161;SDS011;44942;48.936;8.260;2024-01-06T21:17:21;5.60;;;2.30;;
59161;SDS011;44942;48.936;8.260;2024-01-06T21:22:22;2.83;;;2.15;;
59161;SDS011;44942;48.936;8.260;2024-01-06T21:27:23;2.93;;;2.40;;
59161;SDS011;44942;48.936;8.260;2024-01-06T21:37:25;2.47;;;2.00;;
59161;SDS011;44942;48.936;8.260;2024-01-06T21:42:25;3.03;;;2.03;;
59161;SDS011;44942;48.936;8.260;2024-01-06T21:47:26;2.30;;;2.10;;
59161;SDS011;44942;48.936;8.260;2024-01-06T21:52:26;2.80;;;2.03;;
59161;SDS011;44942;48.936;8.260;2024-01-06T21:57:27;2.13;;;1.93;;
59161;SDS011;44942;48.936;8.260;2024-01-06T22:02:28;2.10;;;1.90;;
59161;SDS011;44942;48.936;8.260;2024-01-06T22:07:29;2.07;;;1.87;;
59161;SDS011;44942;48.936;8.260;2024-01-06T22:12:30;2.40;;;2.20;;
59161;SDS011;44942;48.936;8.260;2024-01-06T22:17:30;2.30;;;2.10;;
59161;SDS011;44942;48.936;8.260;2024-01-06T22:22:31;2.03;;;1.90;;
59161;SDS011;44942;48.936;8.260;2024-01-06T22:27:31;2.43;;;2.23;;
59161;SDS011;44942;48.936;8.260;2024-01-06T22:32:32;2.10;;;1.90;;
59161;SDS011;44942;48.936;8.260;2024-01-06T22:37:33;1.90;;;1.80;;
59161;SDS011;44942;48.936;8.260;2024-01-06T22:42:33;2.37;;;2.17;;
59161;SDS011;44942;48.936;8.260;2024-01-06T22:47:34;3.05;;;1.70;;
59161;SDS011;44942;48.936;8.260;2024-01-06T22:52:34;3.07;;;2.77;;
59161;SDS011;44942;48.936;8.260;2024-01-06T22:57:35;3.30;;;3.00;;
59161;SDS011;44942;48.936;8.260;2024-01-06T23:07:37;3.37;;;2.63;;
59161;SDS011;44942;48.936;8.260;2024-01-06T23:12:38;2.60;;;2.40;;
59161;SDS011;44942;48.936;8.260;2024-01-06T23:17:38;3.03;;;2.47;;
59161;SDS011;44942;48.936;8.260;2024-01-06T23:22:39;3.10;;;2.23;;
59161;SDS011;44942;48.936;8.260;2024-01-06T23:27:40;2.58;;;2.30;;
59161;SDS011;44942;48.936;8.260;2024-01-06T23:32:41;2.63;;;2.20;;
59161;SDS011;44942;48.936;8.260;2024-01-06T23:37:42;2.38;;;2.17;;
59161;SDS011;44942;48.936;8.260;2024-01-06T23:47:44;2.67;;;1.93;;
59161;SDS011;44942;48.936;8.260;2024-01-06T23:52:44;3.07;;;2.77;;
59161;SDS011;44942;48.936;8.260;2024-01-06T23:57:45;5.03;;;3.13;;
